DAL3390 KBGR-KBUF
Flight info
| Callsign | DAL3390 |
|---|---|
| Flight time | N/A |
| Altitude | 36000 |
| Route | SYR BUF |
| Aircraft | B738/M-SDE2E3FGHIRWXY/LB1 |
Departure
| Time | 2026-05-07 22:36 |
|---|---|
| Airport | Bangor International Airport (KBGR) |
Arrival
| Time | N/A |
|---|---|
| Airport | Buffalo Niagara International Airport (KBUF) |
| Time | Latitude | Longitude | Altitude | Speed | Heading |
|---|---|---|---|---|---|
| 2026-05-07 22:24 | 44.80751 | -68.81696 | 154 ft | 0 kts | 44° |
| 2026-05-07 22:28 | 44.80749 | -68.81699 | 155 ft | 2 kts | 44° |
| 2026-05-07 22:28 | 44.80738 | -68.81712 | 155 ft | 2 kts | 44° |
| 2026-05-07 22:29 | 44.80735 | -68.81716 | 155 ft | 2 kts | 45° |
| 2026-05-07 22:29 | 44.80726 | -68.81731 | 155 ft | 2 kts | 71° |
| 2026-05-07 22:29 | 44.80725 | -68.81751 | 155 ft | 2 kts | 105° |
| 2026-05-07 22:29 | 44.80730 | -68.81765 | 156 ft | 0 kts | 130° |
| 2026-05-07 22:30 | 44.80735 | -68.81772 | 156 ft | 1 kts | 134° |
| 2026-05-07 22:30 | 44.80735 | -68.81773 | 156 ft | 0 kts | 134° |
| 2026-05-07 22:32 | 44.80723 | -68.81755 | 156 ft | 7 kts | 135° |
| 2026-05-07 22:32 | 44.80651 | -68.81715 | 155 ft | 15 kts | 181° |
| 2026-05-07 22:32 | 44.80557 | -68.81801 | 155 ft | 17 kts | 224° |
| 2026-05-07 22:33 | 44.80457 | -68.81796 | 154 ft | 18 kts | 134° |
| 2026-05-07 22:33 | 44.80362 | -68.81660 | 154 ft | 20 kts | 135° |
| 2026-05-07 22:33 | 44.80259 | -68.81509 | 154 ft | 22 kts | 133° |
| 2026-05-07 22:33 | 44.80146 | -68.81345 | 154 ft | 23 kts | 135° |
| 2026-05-07 22:34 | 44.80037 | -68.81188 | 157 ft | 21 kts | 134° |
| 2026-05-07 22:34 | 44.79935 | -68.81046 | 156 ft | 19 kts | 135° |
| 2026-05-07 22:34 | 44.79826 | -68.81030 | 154 ft | 17 kts | 222° |
| 2026-05-07 22:34 | 44.79747 | -68.81137 | 157 ft | 14 kts | 225° |
| 2026-05-07 22:35 | 44.79690 | -68.81247 | 158 ft | 14 kts | 266° |
| 2026-05-07 22:35 | 44.79776 | -68.81416 | 160 ft | 44 kts | 314° |
| 2026-05-07 22:35 | 44.80194 | -68.82017 | 158 ft | 126 kts | 314° |
| 2026-05-07 22:35 | 44.80964 | -68.83137 | 205 ft | 187 kts | 313° |
| 2026-05-07 22:36 | 44.81859 | -68.84435 | 1191 ft | 182 kts | 314° |
| 2026-05-07 22:36 | 44.82797 | -68.85586 | 1923 ft | 188 kts | 319° |
| 2026-05-07 22:36 | 44.83962 | -68.86748 | 2074 ft | 223 kts | 326° |
| 2026-05-07 22:36 | 44.85382 | -68.87750 | 2750 ft | 235 kts | 334° |
| 2026-05-07 22:37 | 44.86847 | -68.88850 | 3331 ft | 248 kts | 317° |
| 2026-05-07 22:37 | 44.87761 | -68.90869 | 4103 ft | 253 kts | 282° |
| 2026-05-07 22:37 | 44.87634 | -68.93291 | 5113 ft | 254 kts | 251° |
| 2026-05-07 22:37 | 44.86964 | -68.95542 | 6191 ft | 250 kts | 251° |
| 2026-05-07 22:38 | 44.86497 | -68.97854 | 7077 ft | 252 kts | 258° |
| 2026-05-07 22:38 | 44.86154 | -69.00265 | 7902 ft | 257 kts | 259° |
| 2026-05-07 22:38 | 44.85768 | -69.02703 | 8826 ft | 259 kts | 257° |
| 2026-05-07 22:38 | 44.85311 | -69.05155 | 9720 ft | 260 kts | 256° |
| 2026-05-07 22:39 | 44.84824 | -69.07588 | 10431 ft | 267 kts | 255° |
| 2026-05-07 22:39 | 44.84292 | -69.10222 | 10800 ft | 287 kts | 255° |
| 2026-05-07 22:39 | 44.83733 | -69.13000 | 11053 ft | 307 kts | 255° |
| 2026-05-07 22:39 | 44.83131 | -69.15997 | 11305 ft | 328 kts | 255° |
| 2026-05-07 22:40 | 44.82502 | -69.19132 | 11704 ft | 342 kts | 255° |
| 2026-05-07 22:40 | 44.81854 | -69.22356 | 12399 ft | 348 kts | 255° |
| 2026-05-07 22:40 | 44.81191 | -69.25648 | 13183 ft | 351 kts | 255° |
| 2026-05-07 22:40 | 44.80528 | -69.28933 | 14138 ft | 348 kts | 254° |
| 2026-05-07 22:41 | 44.79873 | -69.32178 | 14938 ft | 349 kts | 253° |
| 2026-05-07 22:41 | 44.79208 | -69.35468 | 15565 ft | 355 kts | 254° |
| 2026-05-07 22:41 | 44.78536 | -69.38791 | 16271 ft | 357 kts | 254° |
| 2026-05-07 22:41 | 44.77858 | -69.42131 | 17007 ft | 359 kts | 253° |
| 2026-05-07 22:42 | 44.77176 | -69.45485 | 17651 ft | 362 kts | 253° |
| 2026-05-07 22:42 | 44.76495 | -69.48852 | 18463 ft | 360 kts | 253° |
| 2026-05-07 22:42 | 44.75807 | -69.52239 | 19191 ft | 360 kts | 253° |
| 2026-05-07 22:42 | 44.75114 | -69.55630 | 19752 ft | 364 kts | 253° |
| 2026-05-07 22:43 | 44.74423 | -69.59002 | 20376 ft | 365 kts | 253° |
| 2026-05-07 22:43 | 44.73716 | -69.62444 | 20990 ft | 367 kts | 253° |
| 2026-05-07 22:43 | 44.73009 | -69.65884 | 21606 ft | 368 kts | 252° |
| 2026-05-07 22:43 | 44.72295 | -69.69344 | 22145 ft | 370 kts | 252° |
| 2026-05-07 22:44 | 44.71590 | -69.72766 | 22830 ft | 369 kts | 252° |
| 2026-05-07 22:44 | 44.70874 | -69.76235 | 23305 ft | 373 kts | 252° |
| 2026-05-07 22:44 | 44.70154 | -69.79730 | 23905 ft | 373 kts | 251° |
| 2026-05-07 22:44 | 44.69436 | -69.83217 | 24407 ft | 375 kts | 252° |
| 2026-05-07 22:45 | 44.68710 | -69.86720 | 24874 ft | 378 kts | 252° |
| 2026-05-07 22:45 | 44.67974 | -69.90259 | 25372 ft | 379 kts | 251° |
| 2026-05-07 22:45 | 44.67236 | -69.93806 | 25701 ft | 383 kts | 252° |
| 2026-05-07 22:45 | 44.66482 | -69.97428 | 25751 ft | 382 kts | 251° |
| 2026-05-07 22:46 | 44.65740 | -70.00980 | 25758 ft | 378 kts | 252° |
| 2026-05-07 22:46 | 44.65013 | -70.04457 | 25762 ft | 376 kts | 251° |
| 2026-05-07 22:46 | 44.64273 | -70.07987 | 25757 ft | 377 kts | 251° |
| 2026-05-07 22:46 | 44.63528 | -70.11544 | 25760 ft | 379 kts | 251° |
| 2026-05-07 22:47 | 44.62789 | -70.15075 | 25760 ft | 379 kts | 252° |
| 2026-05-07 22:47 | 44.62053 | -70.18603 | 25763 ft | 378 kts | 251° |
| 2026-05-07 22:47 | 44.61309 | -70.22139 | 25759 ft | 380 kts | 251° |
| 2026-05-07 22:47 | 44.60564 | -70.25672 | 25760 ft | 379 kts | 251° |
| 2026-05-07 22:48 | 44.59817 | -70.29205 | 25770 ft | 378 kts | 251° |
| 2026-05-07 22:48 | 44.59074 | -70.32693 | 25763 ft | 380 kts | 252° |
| 2026-05-07 22:48 | 44.58315 | -70.36235 | 25763 ft | 380 kts | 251° |
| 2026-05-07 22:48 | 44.57546 | -70.39804 | 25757 ft | 380 kts | 252° |
| 2026-05-07 22:49 | 44.56784 | -70.43327 | 25765 ft | 380 kts | 252° |
| 2026-05-07 22:49 | 44.56025 | -70.46859 | 25748 ft | 380 kts | 251° |
| 2026-05-07 22:49 | 44.55275 | -70.50375 | 25754 ft | 379 kts | 252° |
| 2026-05-07 22:49 | 44.54525 | -70.53896 | 25757 ft | 379 kts | 252° |
| 2026-05-07 22:50 | 44.53770 | -70.57416 | 25754 ft | 380 kts | 251° |
| 2026-05-07 22:50 | 44.52999 | -70.60997 | 25751 ft | 381 kts | 252° |
| 2026-05-07 22:50 | 44.52245 | -70.64504 | 25761 ft | 381 kts | 251° |
| 2026-05-07 22:50 | 44.51482 | -70.68051 | 25760 ft | 381 kts | 251° |
| 2026-05-07 22:51 | 44.50724 | -70.71575 | 25758 ft | 380 kts | 251° |
| 2026-05-07 22:51 | 44.49963 | -70.75101 | 25767 ft | 379 kts | 251° |
| 2026-05-07 22:51 | 44.49189 | -70.78674 | 25755 ft | 380 kts | 251° |
| 2026-05-07 22:51 | 44.48424 | -70.82188 | 25750 ft | 380 kts | 251° |
| 2026-05-07 22:52 | 44.47659 | -70.85707 | 25745 ft | 381 kts | 251° |
| 2026-05-07 22:52 | 44.46894 | -70.89246 | 25743 ft | 381 kts | 251° |
| 2026-05-07 22:52 | 44.46128 | -70.92773 | 25756 ft | 381 kts | 251° |
| 2026-05-07 22:52 | 44.45348 | -70.96333 | 25755 ft | 382 kts | 251° |
| 2026-05-07 22:53 | 44.44580 | -70.99840 | 25738 ft | 381 kts | 251° |
| 2026-05-07 22:53 | 44.43808 | -71.03357 | 25753 ft | 381 kts | 251° |
| 2026-05-07 22:53 | 44.43033 | -71.06880 | 25765 ft | 381 kts | 251° |
| 2026-05-07 22:53 | 44.42255 | -71.10410 | 25762 ft | 381 kts | 251° |
| 2026-05-07 22:54 | 44.41479 | -71.13930 | 25774 ft | 381 kts | 251° |
| 2026-05-07 22:54 | 44.40696 | -71.17480 | 25781 ft | 381 kts | 251° |
| 2026-05-07 22:54 | 44.39919 | -71.21010 | 25781 ft | 380 kts | 251° |
| 2026-05-07 22:54 | 44.39135 | -71.24552 | 25785 ft | 379 kts | 251° |
| 2026-05-07 22:55 | 44.38356 | -71.28056 | 25784 ft | 381 kts | 251° |
| 2026-05-07 22:55 | 44.37569 | -71.31591 | 25790 ft | 381 kts | 251° |
| 2026-05-07 22:55 | 44.36791 | -71.35078 | 25793 ft | 381 kts | 251° |
| 2026-05-07 22:55 | 44.35998 | -71.38620 | 25778 ft | 381 kts | 252° |
| 2026-05-07 22:56 | 44.35214 | -71.42125 | 25792 ft | 381 kts | 251° |
| 2026-05-07 22:56 | 44.34428 | -71.45641 | 25789 ft | 382 kts | 251° |
| 2026-05-07 22:56 | 44.33638 | -71.49168 | 25803 ft | 382 kts | 252° |
| 2026-05-07 22:56 | 44.32847 | -71.52708 | 25790 ft | 383 kts | 251° |
| 2026-05-07 22:57 | 44.32050 | -71.56261 | 25800 ft | 381 kts | 252° |
| 2026-05-07 22:57 | 44.31264 | -71.59743 | 25792 ft | 380 kts | 251° |
| 2026-05-07 22:57 | 44.30468 | -71.63264 | 25790 ft | 381 kts | 251° |
| 2026-05-07 22:57 | 44.29665 | -71.66806 | 25787 ft | 381 kts | 251° |
| 2026-05-07 22:58 | 44.28874 | -71.70283 | 25782 ft | 381 kts | 251° |
| 2026-05-07 22:58 | 44.28081 | -71.73774 | 25783 ft | 381 kts | 251° |
| 2026-05-07 22:58 | 44.27279 | -71.77305 | 25778 ft | 381 kts | 251° |
| 2026-05-07 22:58 | 44.26475 | -71.80835 | 25777 ft | 381 kts | 251° |
| 2026-05-07 22:59 | 44.25674 | -71.84337 | 25788 ft | 380 kts | 251° |
| 2026-05-07 22:59 | 44.24870 | -71.87851 | 25774 ft | 380 kts | 251° |
| 2026-05-07 22:59 | 44.24074 | -71.91344 | 25775 ft | 380 kts | 251° |
| 2026-05-07 22:59 | 44.23279 | -71.94846 | 25784 ft | 381 kts | 251° |
| 2026-05-07 23:00 | 44.22478 | -71.98359 | 25789 ft | 381 kts | 251° |
| 2026-05-07 23:00 | 44.21675 | -72.01864 | 25793 ft | 381 kts | 251° |
| 2026-05-07 23:00 | 44.20871 | -72.05354 | 25790 ft | 382 kts | 251° |
| 2026-05-07 23:00 | 44.20065 | -72.08847 | 25805 ft | 381 kts | 251° |
| 2026-05-07 23:01 | 44.19252 | -72.12364 | 25810 ft | 381 kts | 251° |
| 2026-05-07 23:01 | 44.18444 | -72.15858 | 25806 ft | 382 kts | 251° |
| 2026-05-07 23:01 | 44.17631 | -72.19370 | 25815 ft | 382 kts | 251° |